Time;durP1;ratioP1;P1;durP2;ratioP2;P2;SDS_P1;SDS_P2;PMS_P1;PMS_P2;Temp;Humidity;BMP_temperature;BMP_pressure;BME280_temperature;BME280_humidity;BME280_pressure;Samples;Min_cycle;Max_cycle;Signal;HPM_P1;HPM_P2
2022/01/18 00:01:12;;;;;;;7.28;4.25;;;;;;;6.91;45.34;99516.47;6305195;22;20010;-79
2022/01/18 00:03:38;;;;;;;4.40;3.67;;;;;;;6.40;45.19;99431.53;6305078;22;20004;-78
2022/01/18 00:06:03;;;;;;;4.65;3.90;;;;;;;6.79;45.29;99518.53;6277853;22;20049;-79
2022/01/18 00:08:29;;;;;;;5.80;3.55;;;;;;;6.18;45.85;99434.66;6305115;22;20065;-79
2022/01/18 00:10:54;;;;;;;4.63;3.90;;;;;;;6.47;45.89;99471.91;6305311;22;20052;-79
2022/01/18 00:18:29;;;;;;;5.17;3.83;;;;;;;6.62;47.18;99520.19;6305436;22;20027;-79
2022/01/18 00:23:26;;;;;;;6.38;4.35;;;;;;;6.00;47.53;99466.94;6305338;22;20425;-78
2022/01/18 00:25:57;;;;;;;5.20;3.87;;;;;;;6.52;47.98;99524.72;6304991;22;19995;-78
2022/01/18 00:28:24;;;;;;;4.67;3.90;;;;;;;6.27;48.30;99473.06;6304939;22;19999;-79
2022/01/18 00:36:09;;;;;;;4.00;3.40;;;;;;;6.36;50.13;99511.47;6305632;22;20030;-78
2022/01/18 00:38:46;;;;;;;5.20;4.03;;;;;;;6.35;49.78;99501.97;6306552;22;19999;-79
2022/01/18 00:41:13;;;;;;;4.83;3.20;;;;;;;5.94;49.78;99461.47;6279666;22;20428;-78
2022/01/18 00:43:39;;;;;;;3.50;3.20;;;;;;;6.45;50.17;99525.47;6306900;22;20082;-78
2022/01/18 00:46:05;;;;;;;3.90;3.43;;;;;;;6.53;50.05;99533.41;6306673;22;19995;-78
2022/01/18 00:48:35;;;;;;;4.00;3.57;;;;;;;6.49;49.96;99518.97;6306527;22;19999;-79
2022/01/18 00:51:03;;;;;;;4.27;3.37;;;;;;;6.59;50.34;99533.63;6306828;22;20000;-79
2022/01/18 00:53:32;;;;;;;4.30;3.20;;;;;;;6.21;50.39;99477.13;6306997;22;20058;-79
2022/01/18 00:58:30;;;;;;;3.97;3.23;;;;;;;6.12;50.51;99464.91;6307020;22;20003;-78
2022/01/18 01:00:55;;;;;;;4.00;3.57;;;;;;;6.43;50.56;99517.75;6306663;22;20326;-78
2022/01/18 01:03:20;;;;;;;4.07;3.47;;;;;;;6.08;50.61;99466.19;6306636;22;19999;-79
2022/01/18 01:05:46;;;;;;;3.90;3.60;;;;;;;6.60;50.97;99560.69;6306584;22;20099;-80
2022/01/18 01:08:12;;;;;;;3.90;3.40;;;;;;;6.55;50.52;99569.00;6306474;22;20074;-78
2022/01/18 01:10:37;;;;;;;5.40;3.43;;;;;;;6.18;50.61;99514.13;6306448;22;20007;-79
2022/01/18 01:13:03;;;;;;;3.97;3.57;;;;;;;6.59;50.96;99564.28;6306509;22;20052;-79
2022/01/18 01:15:32;;;;;;;4.00;3.57;;;;;;;6.33;50.91;99532.75;6306570;22;19995;-78
2022/01/18 01:42:14;;;;;;;2.63;2.43;;;;;;;6.33;51.68;99546.69;6306103;22;20056;-78
2022/01/18 01:44:44;;;;;;;3.50;2.97;;;;;;;6.44;52.21;99563.16;6306253;22;20456;-78
2022/01/18 01:47:11;;;;;;;3.23;2.77;;;;;;;5.94;51.71;99513.88;6306105;22;19999;-78
2022/01/18 01:49:37;;;;;;;4.37;2.77;;;;;;;5.83;52.02;99493.09;6306088;22;19999;-79
2022/01/18 01:52:08;;;;;;;3.27;2.67;;;;;;;6.10;52.26;99534.19;6278764;22;20053;-79
2022/01/18 01:54:33;;;;;;;5.23;3.00;;;;;;;6.47;51.95;99610.06;6306279;22;19996;-78
2022/01/18 01:56:59;;;;;;;4.23;2.90;;;;;;;6.16;52.36;99538.84;6306295;22;20023;-79
2022/01/18 01:59:24;;;;;;;5.17;3.07;;;;;;;6.39;52.43;99584.59;6306420;22;20002;-80
2022/01/18 02:01:50;;;;;;;3.37;2.67;;;;;;;6.12;51.99;99551.41;6306917;22;19999;-78
2022/01/18 02:04:16;;;;;;;4.37;2.60;;;;;;;5.95;52.24;99547.00;6306069;22;20003;-79
2022/01/18 02:06:42;;;;;;;2.70;2.13;;;;;;;6.27;52.80;99617.25;6278837;22;20076;-79
2022/01/18 02:09:08;;;;;;;2.50;2.20;;;;;;;6.16;52.54;99596.50;6278744;22;20003;-78
2022/01/18 02:11:33;;;;;;;2.33;2.13;;;;;;;6.42;52.48;99662.97;6305977;22;20003;-79
2022/01/18 02:14:00;;;;;;;2.27;2.07;;;;;;;5.96;52.47;99570.44;6278599;22;19996;-78
2022/01/18 02:21:54;;;;;;;4.53;2.20;;;;;;;6.32;52.55;99689.25;6305731;22;20064;-78
2022/01/18 02:24:21;;;;;;;3.57;2.00;;;;;;;6.45;52.16;99703.81;6278446;22;20011;-78
2022/01/18 02:26:47;;;;;;;2.53;2.33;;;;;;;6.20;53.10;99700.09;6278399;22;19999;-77
2022/01/18 02:29:13;;;;;;;3.47;2.40;;;;;;;6.21;52.82;99681.59;6305968;22;20022;-78
2022/01/18 02:31:39;;;;;;;2.60;2.10;;;;;;;5.88;53.19;99627.09;6305941;22;20066;-79
2022/01/18 02:34:08;;;;;;;2.70;2.30;;;;;;;6.10;53.04;99670.50;6306104;22;19991;-79
2022/01/18 02:36:33;;;;;;;3.10;2.80;;;;;;;6.36;53.65;99718.66;6305684;22;20022;-78
2022/01/18 02:38:59;;;;;;;4.07;2.40;;;;;;;6.00;54.58;99697.59;6278045;22;20437;-78
2022/01/18 02:41:29;;;;;;;2.20;2.00;;;;;;;5.79;55.09;99675.97;6305834;22;20010;-78
2022/01/18 02:44:06;;;;;;;3.87;2.60;;;;;;;5.84;55.94;99713.03;6278160;22;20409;-78
2022/01/18 02:46:31;;;;;;;2.87;2.20;;;;;;;6.09;56.23;99771.91;6305668;22;19995;-79
2022/01/18 02:48:59;;;;;;;3.00;2.57;;;;;;;6.08;56.67;99791.22;6305807;22;20006;-78
2022/01/18 02:51:25;;;;;;;3.70;2.40;;;;;;;5.59;56.65;99697.94;6305578;22;20074;-78
2022/01/18 02:54:03;;;;;;;2.90;2.37;;;;;;;6.13;57.24;99801.28;6305745;22;20425;-78
2022/01/18 02:56:46;;;;;;;2.20;2.00;;;;;;;5.78;57.47;99746.84;6305513;22;20333;-79
2022/01/18 03:04:22;;;;;;;2.30;1.97;;;;;;;5.40;57.65;99741.53;6305364;22;20030;-78
2022/01/18 03:06:48;;;;;;;3.17;2.20;;;;;;;5.36;57.58;99740.19;6305369;22;20437;-78
2022/01/18 03:09:13;;;;;;;3.30;2.53;;;;;;;5.49;57.38;99783.56;6305157;22;20326;-79
2022/01/18 03:11:39;;;;;;;2.97;2.53;;;;;;;5.59;57.58;99795.69;6305278;22;20000;-79
2022/01/18 03:14:05;;;;;;;2.60;2.37;;;;;;;5.86;57.11;99855.22;6305362;22;19998;-79
2022/01/18 03:16:30;;;;;;;3.47;2.70;;;;;;;5.46;56.85;99783.84;6278059;22;19999;-79
2022/01/18 03:18:56;;;;;;;3.00;2.50;;;;;;;5.67;56.66;99816.78;6305494;22;19999;-78
2022/01/18 03:21:21;;;;;;;2.83;2.50;;;;;;;5.95;56.58;99857.06;6305253;22;20356;-79
2022/01/18 03:23:52;;;;;;;5.03;2.40;;;;;;;5.64;56.26;99808.38;6305497;22;20349;-78
2022/01/18 03:26:19;;;;;;;2.40;2.03;;;;;;;5.85;56.40;99850.94;6305269;22;20073;-79
2022/01/18 03:28:45;;;;;;;2.67;2.43;;;;;;;5.40;55.73;99775.59;6305155;22;20334;-78
2022/01/18 03:31:10;;;;;;;3.20;2.60;;;;;;;6.02;55.69;99886.97;6305286;22;19999;-79
2022/01/18 03:33:36;;;;;;;6.93;4.70;;;;;;;5.81;55.39;99859.22;6305286;22;20062;-78
2022/01/18 03:36:02;;;;;;;3.57;2.53;;;;;;;5.98;54.80;99900.50;6305441;22;20432;-79
2022/01/18 03:38:31;;;;;;;4.17;2.93;;;;;;;5.96;54.78;99924.22;6305312;22;20006;-78
2022/01/18 03:41:01;;;;;;;3.57;2.87;;;;;;;5.73;54.56;99892.19;6305525;22;20002;-79
2022/01/18 03:43:28;;;;;;;2.43;1.83;;;;;;;5.78;53.45;99925.00;6305380;22;19999;-78
2022/01/18 03:46:00;;;;;;;2.67;2.23;;;;;;;5.73;52.97;99917.56;6305602;22;20021;-79
2022/01/18 03:48:32;;;;;;;3.13;1.80;;;;;;;5.72;52.77;99932.44;6277877;22;19999;-78
2022/01/18 03:50:59;;;;;;;3.03;2.10;;;;;;;5.41;51.84;99891.63;6277913;22;20007;-78
2022/01/18 03:53:25;;;;;;;2.30;1.40;;;;;;;5.13;51.38;99866.19;6305362;22;19996;-79
2022/01/18 03:55:51;;;;;;;1.70;1.60;;;;;;;5.50;51.25;99927.47;6278119;22;20352;-79
2022/01/18 03:58:16;;;;;;;2.00;1.60;;;;;;;5.75;51.11;99974.09;6305200;22;20033;-78
2022/01/18 04:00:42;;;;;;;1.83;1.53;;;;;;;5.74;50.90;99971.59;6305235;22;19995;-78
2022/01/18 04:03:08;;;;;;;3.53;2.03;;;;;;;5.33;50.61;99931.56;6305244;22;19999;-78
2022/01/18 04:05:33;;;;;;;3.47;2.10;;;;;;;5.41;50.95;99934.34;6305411;22;20381;-78
2022/01/18 04:07:59;;;;;;;5.13;2.40;;;;;;;5.29;50.59;99934.59;6305083;22;20502;-79
2022/01/18 04:10:25;;;;;;;4.17;2.50;;;;;;;4.96;50.53;99896.47;6304803;22;20030;-79
2022/01/18 04:12:51;;;;;;;2.80;2.10;;;;;;;5.61;50.73;100008.53;6306137;22;19999;-78
2022/01/18 04:15:17;;;;;;;6.03;3.53;;;;;;;5.71;50.76;100024.28;6306892;22;20026;-78
2022/01/18 04:28:43;;;;;;;5.13;3.10;;;;;;;5.26;49.02;100029.13;6306794;22;20075;-79
2022/01/18 04:31:10;;;;;;;4.43;2.63;;;;;;;5.19;48.36;100041.88;6279750;22;20071;-78
2022/01/18 04:33:37;;;;;;;4.60;2.93;;;;;;;5.08;47.85;100021.84;6307144;22;20444;-78
2022/01/18 04:36:04;;;;;;;5.87;3.13;;;;;;;5.11;48.08;100032.06;6307001;22;20000;-79
2022/01/18 04:38:30;;;;;;;4.23;2.87;;;;;;;4.77;47.33;99994.03;6306868;22;20015;-79
2022/01/18 04:41:01;;;;;;;2.67;1.90;;;;;;;4.33;46.83;99948.88;6306940;22;20011;-79
2022/01/18 04:43:51;;;;;;;3.90;2.30;;;;;;;4.89;46.62;100054.94;6279186;22;20457;-78
2022/01/18 04:49:02;;;;;;;2.50;2.30;;;;;;;4.50;46.88;99998.97;6306900;22;20010;-78
2022/01/18 04:51:28;;;;;;;3.50;3.10;;;;;;;4.81;46.07;100084.38;6307006;22;20441;-78
2022/01/18 04:53:56;;;;;;;2.60;2.40;;;;;;;4.71;46.06;100062.56;6306898;22;20079;-78
2022/01/18 04:57:51;;;;;;;3.17;2.40;;;;;;;4.49;45.12;100028.69;6307057;22;19999;-79
2022/01/18 04:59:14;;;;;;;3.30;2.33;;;;;;;4.72;45.32;100079.91;6306550;22;20072;-79
2022/01/18 05:01:42;;;;;;;2.70;2.10;;;;;;;4.64;45.01;100069.25;6306862;22;20205;-78
2022/01/18 05:04:08;;;;;;;2.57;2.27;;;;;;;4.38;45.07;100013.84;6278957;22;19999;-78
2022/01/18 05:06:34;;;;;;;4.83;2.43;;;;;;;4.36;45.05;100018.38;6279464;22;19999;-78
2022/01/18 05:09:08;;;;;;;3.23;2.50;;;;;;;4.23;44.82;100008.09;6306869;22;19999;-78
2022/01/18 05:11:41;;;;;;;3.50;2.43;;;;;;;4.13;44.97;100001.97;6306519;22;20338;-78
2022/01/18 05:14:20;;;;;;;5.50;2.40;;;;;;;4.37;44.68;100044.38;6306699;22;20074;-78
2022/01/18 05:16:53;;;;;;;5.40;2.47;;;;;;;4.33;44.75;100036.94;6307065;22;19998;-79
2022/01/18 05:24:32;;;;;;;5.53;3.90;;;;;;;4.76;45.40;100131.84;6306673;22;20014;-78
2022/01/18 05:26:59;;;;;;;6.23;4.07;;;;;;;4.64;45.10;100127.63;6306804;22;20033;-79
2022/01/18 05:29:25;;;;;;;5.37;4.00;;;;;;;4.37;45.51;100098.47;6306425;22;20006;-78
2022/01/18 05:31:51;;;;;;;14.53;6.80;;;;;;;4.72;45.54;100161.00;6306693;22;20022;-78
2022/01/18 05:34:17;;;;;;;5.77;3.70;;;;;;;4.25;45.28;100097.66;6306461;22;20048;-78
2022/01/18 05:36:43;;;;;;;8.90;3.70;;;;;;;4.44;45.24;100121.38;6306835;22;20030;-78
2022/01/18 05:39:09;;;;;;;8.63;3.20;;;;;;;4.38;45.23;100108.78;6306357;22;19999;-78
2022/01/18 05:41:39;;;;;;;5.73;3.50;;;;;;;4.62;43.96;100149.63;6306485;22;20392;-79
2022/01/18 05:44:06;;;;;;;5.60;3.47;;;;;;;4.14;44.69;100061.13;6307058;22;20065;-78
2022/01/18 05:46:32;;;;;;;4.07;3.07;;;;;;;4.26;44.70;100094.09;6278899;22;20083;-78
2022/01/18 05:49:00;;;;;;;6.60;3.60;;;;;;;4.25;45.11;100094.22;6306237;22;20507;-78
2022/01/18 05:51:29;;;;;;;7.47;3.90;;;;;;;4.04;44.75;100079.31;6306805;22;20509;-78
2022/01/18 05:53:55;;;;;;;12.77;4.97;;;;;;;4.01;44.76;100092.63;6306472;22;20018;-78
2022/01/18 05:56:20;;;;;;;7.60;4.17;;;;;;;4.43;44.91;100165.94;6306635;22;20497;-78
2022/01/18 05:58:48;;;;;;;8.63;4.40;;;;;;;3.93;44.94;100083.75;6306157;22;20003;-78
2022/01/18 06:01:21;;;;;;;5.67;3.13;;;;;;;4.26;44.79;100145.56;6306543;22;20436;-78
2022/01/18 06:09:02;;;;;;;6.90;4.07;;;;;;;4.24;44.89;100184.88;6307319;22;20083;-78
2022/01/18 06:11:28;;;;;;;9.93;4.60;;;;;;;4.53;44.85;100241.88;6306921;22;20023;-78
2022/01/18 06:13:53;;;;;;;7.53;4.37;;;;;;;4.12;44.40;100210.19;6306740;22;19991;-78
2022/01/18 06:16:18;;;;;;;4.93;3.37;;;;;;;4.33;44.36;100227.75;6306782;22;19999;-79
2022/01/18 06:18:44;;;;;;;5.73;3.97;;;;;;;4.35;44.08;100237.13;6306674;22;20027;-79
2022/01/18 06:21:10;;;;;;;8.07;5.07;;;;;;;4.50;44.05;100270.91;6306708;22;19999;-78
2022/01/18 06:23:36;;;;;;;7.37;4.00;;;;;;;4.44;44.11;100264.34;6306487;22;19999;-78
2022/01/18 06:26:03;;;;;;;9.23;5.03;;;;;;;4.13;43.99;100214.47;6279608;22;20348;-78
2022/01/18 06:28:29;;;;;;;5.97;4.13;;;;;;;4.44;44.08;100278.25;6279430;22;20018;-78
2022/01/18 06:30:55;;;;;;;6.53;4.13;;;;;;;4.02;43.96;100218.88;6306041;22;20403;-78
2022/01/18 06:33:20;;;;;;;6.20;3.20;;;;;;;4.36;43.75;100283.25;6279109;22;19998;-78
2022/01/18 06:35:47;;;;;;;5.07;3.17;;;;;;;4.00;43.58;100239.06;6306248;22;20045;-79
2022/01/18 06:38:13;;;;;;;8.20;4.37;;;;;;;3.25;44.02;100121.28;6306483;22;20006;-78
2022/01/18 06:40:39;;;;;;;6.40;3.40;;;;;;;3.93;43.69;100223.03;6279268;22;20410;-78
2022/01/18 06:43:05;;;;;;;6.80;4.07;;;;;;;4.32;43.83;100305.34;6306489;22;20006;-79
2022/01/18 06:45:31;;;;;;;4.80;3.10;;;;;;;4.43;43.87;100318.41;6306642;22;20062;-78
2022/01/18 06:47:57;;;;;;;6.07;3.63;;;;;;;4.08;43.52;100258.44;6306645;22;20084;-79
2022/01/18 06:50:22;;;;;;;7.13;3.40;;;;;;;4.28;43.86;100303.91;6305004;22;20006;-78
2022/01/18 06:52:48;;;;;;;8.00;3.80;;;;;;;4.35;43.36;100309.50;6303744;22;20074;-78
2022/01/18 06:55:13;;;;;;;9.70;4.50;;;;;;;4.28;43.62;100295.25;6275914;22;20049;-79
2022/01/18 06:57:39;;;;;;;2.90;2.53;;;;;;;4.27;42.95;100290.97;6275714;22;19995;-78
2022/01/18 07:00:06;;;;;;;5.33;3.07;;;;;;;4.10;42.99;100266.97;6304425;22;19995;-79
2022/01/18 07:02:32;;;;;;;6.50;3.37;;;;;;;3.85;43.00;100232.41;6302754;22;20455;-78
2022/01/18 07:04:57;;;;;;;4.77;3.00;;;;;;;4.45;42.91;100318.28;6277984;22;19999;-78
2022/01/18 07:07:23;;;;;;;9.30;4.13;;;;;;;3.95;42.92;100234.19;6307752;22;20070;-78
2022/01/18 07:09:49;;;;;;;6.73;3.70;;;;;;;4.38;42.64;100301.41;6307752;22;20033;-78
2022/01/18 07:12:15;;;;;;;8.87;3.90;;;;;;;4.13;42.76;100237.16;6279908;22;19999;-78
2022/01/18 07:14:41;;;;;;;7.53;3.20;;;;;;;4.56;42.33;100310.47;6308838;22;20075;-78
2022/01/18 07:17:07;;;;;;;5.27;2.47;;;;;;;4.47;42.18;100296.34;6281106;22;20019;-78
2022/01/18 07:19:33;;;;;;;6.07;3.43;;;;;;;4.17;41.67;100242.97;6307971;22;19999;-79
2022/01/18 07:21:59;;;;;;;6.53;2.80;;;;;;;4.56;41.21;100335.78;6274170;22;19999;-78
2022/01/18 07:24:47;;;;;;;8.10;3.70;;;;;;;4.64;40.93;100372.63;6301678;22;20003;-78
2022/01/18 07:27:14;;;;;;;8.93;5.13;;;;;;;4.07;40.97;100262.00;6302727;22;20440;-78
2022/01/18 07:29:42;;;;;;;4.90;3.03;;;;;;;4.50;41.08;100344.94;6304970;22;19995;-79
2022/01/18 07:32:09;;;;;;;5.00;3.00;;;;;;;4.12;40.92;100272.91;6301983;22;20079;-78
2022/01/18 07:34:39;;;;;;;4.57;3.23;;;;;;;4.24;40.77;100292.03;6272347;22;19999;-79
2022/01/18 07:37:05;;;;;;;9.47;3.87;;;;;;;4.26;40.99;100286.69;6273811;22;20007;-79
2022/01/18 07:39:30;;;;;;;5.13;3.30;;;;;;;4.27;40.63;100281.34;6296605;22;20132;-79
2022/01/18 07:41:56;;;;;;;5.17;2.83;;;;;;;4.25;40.70;100301.53;6302389;22;19999;-79
2022/01/18 07:44:21;;;;;;;9.13;4.03;;;;;;;4.05;40.37;100284.78;6302725;22;20011;-78
2022/01/18 07:46:46;;;;;;;6.53;2.80;;;;;;;4.21;40.32;100310.56;6277753;22;20513;-79
2022/01/18 07:49:12;;;;;;;8.03;3.63;;;;;;;4.53;40.54;100338.66;6306649;22;19991;-79
2022/01/18 07:51:37;;;;;;;5.83;2.90;;;;;;;4.18;40.14;100310.81;6307698;22;20002;-78
2022/01/18 07:54:03;;;;;;;6.43;3.27;;;;;;;4.25;40.47;100298.94;6307228;22;19999;-79
2022/01/18 07:56:28;;;;;;;4.67;3.00;;;;;;;4.26;40.25;100290.13;6306334;22;20285;-79
2022/01/18 07:58:54;;;;;;;2.70;2.37;;;;;;;4.18;40.30;100333.50;6304001;22;20066;-79
2022/01/18 08:01:20;;;;;;;5.40;2.97;;;;;;;2.91;40.53;100142.06;6307996;22;20074;-79
2022/01/18 08:03:46;;;;;;;4.87;3.40;;;;;;;4.83;40.28;100406.88;6279602;22;20060;-79
2022/01/18 08:06:11;;;;;;;4.47;2.70;;;;;;;4.32;40.38;100339.34;6306711;22;20004;-79
2022/01/18 08:08:39;;;;;;;5.53;2.83;;;;;;;4.82;40.06;100417.44;6306984;22;19995;-79
2022/01/18 08:11:05;;;;;;;4.53;2.87;;;;;;;4.24;40.21;100305.09;6307733;22;20070;-79
2022/01/18 08:13:37;;;;;;;4.17;2.40;;;;;;;4.32;40.47;100320.19;6306249;22;19995;-79
2022/01/18 08:16:47;;;;;;;6.30;2.50;;;;;;;4.91;39.74;100419.34;6305992;22;20082;-80
2022/01/18 08:18:56;;;;;;;;;;;;;;;4.89;39.61;100423.88;6299313;22;19999;-79
2022/01/18 08:21:22;;;;;;;6.87;2.63;;;;;;;4.58;39.99;100357.41;6307407;22;19903;-79
2022/01/18 08:23:48;;;;;;;7.90;3.40;;;;;;;5.05;39.68;100432.19;6307917;22;20455;-79
2022/01/18 08:26:14;;;;;;;3.70;2.60;;;;;;;4.49;39.22;100374.66;6305538;22;20078;-79
2022/01/18 08:28:40;;;;;;;8.63;3.03;;;;;;;4.42;39.42;100361.19;6278662;22;20033;-79
2022/01/18 08:31:05;;;;;;;5.57;3.13;;;;;;;4.98;39.59;100438.84;6280312;22;19995;-79
2022/01/18 08:33:32;;;;;;;8.00;3.00;;;;;;;4.65;39.64;100382.97;6306727;22;19992;-79
2022/01/18 08:36:03;;;;;;;8.20;4.23;;;;;;;4.55;39.85;100363.72;6308084;22;20357;-80
2022/01/18 08:38:28;;;;;;;6.10;2.97;;;;;;;4.83;39.54;100468.81;6278247;22;20010;-79
2022/01/18 08:40:54;;;;;;;4.97;3.57;;;;;;;4.63;39.62;100411.03;6279333;22;20003;-79
2022/01/18 08:43:21;;;;;;;4.57;3.50;;;;;;;4.90;39.78;100447.28;6305931;22;20038;-80
2022/01/18 08:45:47;;;;;;;7.23;4.40;;;;;;;4.68;39.90;100397.59;6280563;22;20006;-80
2022/01/18 08:48:14;;;;;;;6.83;3.43;;;;;;;5.04;39.67;100454.91;6304711;22;19999;-80
2022/01/18 08:50:40;;;;;;;4.73;2.87;;;;;;;4.67;39.08;100388.09;6279648;22;19995;-81
2022/01/18 08:53:05;;;;;;;6.10;3.27;;;;;;;4.34;39.21;100328.75;6305255;22;19999;-79
2022/01/18 08:55:34;;;;;;;5.63;3.27;;;;;;;4.60;39.44;100395.56;6307261;22;20003;-80
2022/01/18 08:58:00;;;;;;;6.23;2.70;;;;;;;4.82;39.22;100402.59;6305066;22;19999;-80
2022/01/18 09:00:25;;;;;;;2.80;2.20;;;;;;;5.20;38.73;100462.41;6278138;22;20035;-81
2022/01/18 09:02:51;;;;;;;5.63;2.70;;;;;;;4.90;38.93;100420.28;6304966;22;19991;-80
2022/01/18 09:05:17;;;;;;;9.10;4.37;;;;;;;5.21;39.31;100489.41;6304984;22;20023;-81
2022/01/18 09:07:42;;;;;;;5.23;2.90;;;;;;;5.27;38.81;100471.44;6304611;22;19999;-82
2022/01/18 09:10:11;;;;;;;4.03;2.80;;;;;;;5.29;38.77;100473.94;6307002;22;20348;-81
2022/01/18 09:12:37;;;;;;;7.80;3.20;;;;;;;5.29;38.98;100469.53;6308888;22;20003;-80
2022/01/18 09:15:06;;;;;;;7.33;2.83;;;;;;;5.33;38.79;100470.13;6314033;22;19998;-79
2022/01/18 09:17:35;;;;;;;6.93;2.90;;;;;;;4.88;38.83;100420.41;6281995;22;20003;-80
2022/01/18 09:20:06;;;;;;;6.17;2.60;;;;;;;5.21;38.76;100450.97;6311590;22;19995;-80
2022/01/18 09:22:34;;;;;;;6.80;3.33;;;;;;;5.32;38.43;100435.25;6312909;22;20002;-79
2022/01/18 09:25:01;;;;;;;5.77;3.57;;;;;;;5.05;38.56;100367.56;6332452;22;20011;-80
2022/01/18 09:27:26;;;;;;;5.87;3.63;;;;;;;5.16;38.82;100392.91;6307462;22;20015;-79
2022/01/18 09:29:52;;;;;;;5.90;2.90;;;;;;;4.90;38.22;100353.09;6334403;22;20007;-80
2022/01/18 09:32:17;;;;;;;6.00;3.20;;;;;;;4.59;38.56;100291.09;6281982;22;19999;-79
2022/01/18 09:34:42;;;;;;;10.77;3.23;;;;;;;5.05;38.38;100371.97;6305036;22;19991;-80
2022/01/18 09:37:08;;;;;;;9.80;4.27;;;;;;;5.01;38.49;100360.09;6304089;22;19999;-79
2022/01/18 09:39:33;;;;;;;5.43;2.70;;;;;;;5.03;38.53;100356.41;6277153;22;20510;-79
2022/01/18 09:42:02;;;;;;;6.50;3.67;;;;;;;5.66;38.27;100435.97;6278449;22;19995;-79
2022/01/18 09:44:29;;;;;;;8.93;3.07;;;;;;;4.76;38.00;100270.47;6305681;22;20003;-80
2022/01/18 09:46:54;;;;;;;9.87;2.97;;;;;;;5.39;37.90;100359.66;6278500;22;19995;-80
2022/01/18 09:49:20;;;;;;;6.97;3.63;;;;;;;5.39;38.07;100347.38;6278582;22;20006;-81
2022/01/18 09:51:46;;;;;;;5.80;3.57;;;;;;;5.83;37.93;100394.47;6305704;22;19995;-81
2022/01/18 09:54:12;;;;;;;6.03;2.97;;;;;;;6.01;37.67;100420.03;6277373;22;20019;-83
2022/01/18 09:56:38;;;;;;;6.03;3.50;;;;;;;5.30;37.79;100282.69;6278372;22;19999;-82
2022/01/18 09:59:04;;;;;;;7.43;4.00;;;;;;;5.52;37.47;100323.63;6306050;22;20445;-80
2022/01/18 10:01:30;;;;;;;7.53;4.40;;;;;;;5.96;37.33;100377.66;6278752;22;19999;-81
2022/01/18 10:04:20;;;;;;;5.17;2.70;;;;;;;6.19;36.71;100401.94;6308412;22;20007;-81
2022/01/18 10:06:51;;;;;;;7.93;3.10;;;;;;;5.59;37.52;100303.00;6332901;22;19995;-81
2022/01/18 10:09:19;;;;;;;5.38;2.80;;;;;;;5.74;37.24;100320.06;6329904;22;19983;-80
2022/01/18 10:12:11;;;;;;;5.97;2.97;;;;;;;6.36;37.50;100395.28;6309242;22;20003;-78
2022/01/18 10:15:00;;;;;;;5.18;2.83;;;;;;;5.65;36.55;100340.00;6278069;22;19999;-77
2022/01/18 10:17:33;;;;;;;6.30;3.47;;;;;;;6.41;36.81;100397.50;6277380;22;20010;-79
2022/01/18 10:20:08;;;;;;;5.77;3.40;;;;;;;6.44;36.16;100389.38;6305826;22;20445;-79
2022/01/18 10:22:48;;;;;;;5.17;2.80;;;;;;;6.41;36.14;100374.72;6305935;22;20062;-78
2022/01/18 10:25:26;;;;;;;5.97;3.00;;;;;;;5.75;34.92;100278.00;6302544;22;20038;-91
2022/01/18 10:27:55;;;;;;;5.53;2.80;;;;;;;6.43;35.55;100382.47;6303136;22;20026;-89
2022/01/18 10:30:45;;;;;;;6.63;4.23;;;;;;;6.37;35.87;100382.03;6303785;22;20448;-89
2022/01/18 10:33:19;;;;;;;6.33;3.80;;;;;;;5.66;36.39;100259.63;6302767;22;20007;-88
2022/01/18 10:36:12;;;;;;;9.63;3.83;;;;;;;6.42;36.10;100386.88;6305319;22;19999;-87
2022/01/18 10:38:39;;;;;;;10.03;3.50;;;;;;;6.48;36.50;100388.16;6303150;22;20000;-89
2022/01/18 10:41:30;;;;;;;5.13;3.40;;;;;;;6.11;36.75;100315.22;6303302;22;20078;-90
2022/01/18 10:44:10;;;;;;;12.60;4.90;;;;;;;6.67;36.67;100375.94;6304165;22;20066;-89
2022/01/18 10:46:48;;;;;;;6.83;4.47;;;;;;;6.78;36.76;100388.16;6304479;22;20011;-89
2022/01/18 10:49:28;;;;;;;4.87;3.50;;;;;;;6.78;36.24;100392.56;6304087;22;20368;-90
2022/01/18 10:51:59;;;;;;;8.33;4.20;;;;;;;6.78;36.07;100363.72;6304036;22;20056;-88
2022/01/18 10:54:46;;;;;;;6.15;4.00;;;;;;;6.81;36.48;100360.81;6274859;22;20356;-86
2022/01/18 10:57:16;;;;;;;6.10;3.43;;;;;;;6.75;36.30;100359.56;6303922;22;20104;-87
2022/01/18 10:59:41;;;;;;;7.80;4.37;;;;;;;6.41;36.27;100303.91;6277226;22;20010;-89
2022/01/18 11:02:13;;;;;;;6.30;4.30;;;;;;;6.25;35.42;100264.22;6302894;22;19999;-87
2022/01/18 11:04:59;;;;;;;;;;;;;;;6.67;35.09;100343.63;6277558;22;20361;-89
2022/01/18 11:07:28;;;;;;;6.20;3.07;;;;;;;6.22;35.55;100270.56;6303165;22;20196;-88
2022/01/18 11:10:03;;;;;;;5.00;2.50;;;;;;;6.81;35.60;100343.28;6275809;22;20048;-90
2022/01/18 11:12:31;;;;;;;4.50;3.20;;;;;;;6.83;36.02;100343.97;6304400;22;19995;-88
2022/01/18 11:15:07;;;;;;;7.73;2.90;;;;;;;6.26;35.67;100251.00;6304144;22;20467;-88
2022/01/18 11:17:39;;;;;;;6.17;3.10;;;;;;;6.54;36.30;100304.50;6303876;22;20011;-88
2022/01/18 11:20:07;;;;;;;5.00;2.90;;;;;;;6.63;35.25;100350.09;6303838;22;20078;-87
2022/01/18 11:22:33;;;;;;;5.13;3.17;;;;;;;6.26;35.23;100276.38;6303886;22;20014;-86
2022/01/18 11:25:02;;;;;;;9.03;3.13;;;;;;;6.19;35.58;100281.31;6303699;22;20452;-88
2022/01/18 11:27:29;;;;;;;5.37;3.53;;;;;;;5.33;35.50;100133.19;6303262;22;19999;-87
2022/01/18 11:29:55;;;;;;;5.53;3.40;;;;;;;6.66;35.20;100353.28;6303944;22;20017;-88
2022/01/18 11:32:27;;;;;;;15.83;6.47;;;;;;;6.55;35.26;100334.19;6304340;22;20440;-89
2022/01/18 11:35:01;;;;;;;4.45;4.00;;;;;;;6.63;36.02;100339.59;6303636;22;20458;-87
2022/01/18 11:37:45;;;;;;;5.73;2.90;;;;;;;6.60;36.14;100345.13;6302661;22;20006;-89
2022/01/18 11:40:14;;;;;;;2.73;2.03;;;;;;;5.85;36.49;100214.34;6304484;22;20003;-88
2022/01/18 11:42:52;;;;;;;4.80;2.30;;;;;;;6.07;35.32;100250.91;6304525;22;19995;-89
2022/01/18 11:45:27;;;;;;;5.97;2.80;;;;;;;6.67;35.75;100349.69;6275268;22;20452;-87
2022/01/18 11:48:13;;;;;;;5.93;3.60;;;;;;;6.68;36.05;100351.34;6276594;22;20082;-87
2022/01/18 11:50:43;;;;;;;8.07;3.00;;;;;;;5.72;35.88;100231.13;6304124;22;20049;-89
2022/01/18 11:53:15;;;;;;;7.93;3.93;;;;;;;6.62;35.52;100343.19;6304923;22;19995;-87
2022/01/18 11:55:43;;;;;;;;;;;;;;;6.53;35.77;100346.59;6305498;22;20056;-88
2022/01/18 11:58:12;;;;;;;4.73;3.27;;;;;;;6.08;36.27;100255.19;6303545;22;19914;-88
2022/01/18 12:00:53;;;;;;;7.23;3.80;;;;;;;6.64;35.95;100341.25;6302605;22;20412;-88
2022/01/18 12:03:26;;;;;;;8.30;3.90;;;;;;;6.64;36.12;100349.97;6304011;22;20049;-89
2022/01/18 12:05:52;;;;;;;6.53;3.33;;;;;;;6.24;36.07;100288.78;6304794;22;20070;-89
2022/01/18 12:08:30;;;;;;;4.47;2.60;;;;;;;6.61;35.55;100338.91;6303133;22;19995;-87
2022/01/18 12:10:55;;;;;;;5.27;3.07;;;;;;;5.77;35.67;100207.13;6303239;22;20022;-87
2022/01/18 12:13:29;;;;;;;7.30;3.07;;;;;;;6.27;36.03;100272.78;6302706;22;20456;-88
2022/01/18 12:15:57;;;;;;;5.67;4.03;;;;;;;6.22;36.10;100277.59;6277058;22;20461;-87
2022/01/18 12:18:29;;;;;;;6.70;3.47;;;;;;;4.78;36.00;100123.84;6303325;22;20064;-88
2022/01/18 12:21:15;;;;;;;6.93;3.88;;;;;;;6.49;35.78;100330.31;6303572;22;20003;-87
2022/01/18 12:23:43;;;;;;;7.23;4.47;;;;;;;6.48;36.06;100305.03;6274766;22;20031;-88
2022/01/18 12:28:35;;;;;;;7.77;3.83;;;;;;;6.78;35.22;100368.97;6302762;22;20003;-87
2022/01/18 12:31:17;;;;;;;11.17;5.10;;;;;;;6.32;35.73;100307.31;6303911;22;20004;-87
2022/01/18 12:33:44;;;;;;;11.97;7.00;;;;;;;6.67;35.07;100347.06;6276853;22;19991;-88
2022/01/18 12:36:29;;;;;;;9.33;5.33;;;;;;;6.38;35.04;100306.78;6306252;22;19995;-89
2022/01/18 12:38:59;;;;;;;5.60;3.70;;;;;;;6.77;35.46;100360.25;6305940;22;20074;-88
2022/01/18 12:41:46;;;;;;;5.90;3.70;;;;;;;6.81;35.29;100358.19;6305719;22;19999;-89
2022/01/18 12:44:20;;;;;;;6.90;3.47;;;;;;;6.61;35.19;100320.53;6302891;22;20079;-88
2022/01/18 12:47:04;;;;;;;6.63;2.90;;;;;;;6.84;34.16;100358.75;6304280;22;20410;-89
2022/01/18 12:49:31;;;;;;;6.40;3.17;;;;;;;6.56;34.72;100331.44;6276933;22;19999;-86
2022/01/18 12:51:59;;;;;;;4.67;3.27;;;;;;;5.63;34.48;100195.22;6302404;22;20353;-87
2022/01/18 12:54:39;;;;;;;5.13;2.77;;;;;;;6.32;34.48;100295.03;6278051;22;20356;-89
2022/01/18 12:57:12;;;;;;;6.50;3.30;;;;;;;6.46;34.74;100306.97;6305523;22;19991;-87
2022/01/18 13:00:00;;;;;;;4.87;3.67;;;;;;;6.42;34.15;100323.94;6303575;22;20018;-88
2022/01/18 13:02:27;;;;;;;4.57;2.80;;;;;;;6.30;35.22;100309.25;6302813;22;19995;-86